Time;durP1;ratioP1;P1;durP2;ratioP2;P2;SDS_P1;SDS_P2;PMS_P1;PMS_P2;Temp;Humidity;BMP_temperature;BMP_pressure;BME280_temperature;BME280_humidity;BME280_pressure;Samples;Min_cycle;Max_cycle;Signal;HPM_P1;HPM_P2
2023/11/10 00:00:12;;;;;;;55.43;2.20;;;;;;;;;;5053937;28;20522;-70
2023/11/10 00:05:29;;;;;;;55.87;2.10;;;;;;;;;;5037411;28;20546;-74
2023/11/10 00:07:57;;;;;;;55.93;2.23;;;;;;;;;;5045675;28;20479;-74
2023/11/10 00:10:26;;;;;;;55.90;2.43;;;;;;;;;;5039676;28;20545;-73
2023/11/10 00:12:54;;;;;;;56.03;2.40;;;;;;;;;;5046557;28;20449;-73
2023/11/10 00:15:22;;;;;;;55.70;2.07;;;;;;;;;;5049328;28;20430;-72
2023/11/10 00:17:51;;;;;;;55.77;1.97;;;;;;;;;;5048097;28;20503;-74
2023/11/10 00:20:18;;;;;;;55.70;2.10;;;;;;;;;;5061413;28;20472;-74
2023/11/10 00:22:48;;;;;;;56.70;2.57;;;;;;;;;;5061893;28;20884;-72
2023/11/10 00:25:15;;;;;;;55.73;2.20;;;;;;;;;;5061965;28;20996;-73
2023/11/10 00:27:42;;;;;;;56.10;2.50;;;;;;;;;;5057358;28;20534;-73
2023/11/10 00:30:10;;;;;;;55.93;2.40;;;;;;;;;;5066038;28;20546;-72
2023/11/10 00:32:37;;;;;;;56.07;2.60;;;;;;;;;;5066700;28;20923;-71
2023/11/10 00:35:06;;;;;;;55.67;2.40;;;;;;;;;;5067332;28;20551;-74
2023/11/10 00:37:33;;;;;;;56.20;2.20;;;;;;;;;;5063734;28;20856;-73
2023/11/10 00:40:01;;;;;;;56.30;2.60;;;;;;;;;;5060187;28;20943;-73
2023/11/10 00:42:28;;;;;;;56.00;2.53;;;;;;;;;;5060038;28;20518;-73
2023/11/10 00:44:56;;;;;;;56.00;2.40;;;;;;;;;;5059222;28;20485;-73
2023/11/10 00:47:24;;;;;;;56.20;2.40;;;;;;;;;;5059121;28;20957;-73
2023/11/10 00:49:51;;;;;;;55.37;2.37;;;;;;;;;;5058676;28;20494;-74
2023/11/10 00:52:20;;;;;;;55.93;2.40;;;;;;;;;;5057166;28;20453;-74
2023/11/10 00:54:48;;;;;;;56.07;2.20;;;;;;;;;;5057717;28;20493;-72
2023/11/10 00:57:15;;;;;;;55.90;2.40;;;;;;;;;;5057769;28;20882;-73
2023/11/10 00:59:42;;;;;;;56.00;2.30;;;;;;;;;;5058684;28;20529;-73
2023/11/10 01:02:09;;;;;;;55.67;2.40;;;;;;;;;;5060429;28;20533;-74
2023/11/10 01:04:36;;;;;;;56.50;2.47;;;;;;;;;;5058936;28;20454;-73
2023/11/10 01:07:03;;;;;;;56.40;3.00;;;;;;;;;;5057791;28;20544;-73
2023/11/10 01:09:32;;;;;;;56.10;2.63;;;;;;;;;;5058555;28;20557;-73
2023/11/10 01:11:59;;;;;;;55.87;2.20;;;;;;;;;;5059124;28;20474;-73
2023/11/10 01:14:26;;;;;;;56.10;2.50;;;;;;;;;;5058029;28;20453;-74
2023/11/10 01:16:54;;;;;;;55.93;2.63;;;;;;;;;;5057966;28;20526;-74
2023/11/10 01:19:21;;;;;;;56.07;2.60;;;;;;;;;;5060447;28;20504;-73
2023/11/10 01:21:48;;;;;;;56.10;2.67;;;;;;;;;;5057582;28;20920;-71
2023/11/10 01:24:16;;;;;;;56.57;2.40;;;;;;;;;;5058388;28;20510;-74
2023/11/10 01:26:45;;;;;;;56.03;2.40;;;;;;;;;;5058910;28;20446;-73
2023/11/10 01:29:12;;;;;;;55.80;2.60;;;;;;;;;;5060100;28;20492;-74
2023/11/10 01:31:39;;;;;;;56.10;2.50;;;;;;;;;;5062588;28;20553;-74
2023/11/10 01:34:06;;;;;;;56.00;2.50;;;;;;;;;;5060890;28;20457;-72
2023/11/10 01:36:33;;;;;;;56.10;2.40;;;;;;;;;;5059314;28;20881;-73
2023/11/10 01:39:00;;;;;;;56.07;2.50;;;;;;;;;;5058457;28;20538;-73
2023/11/10 01:41:27;;;;;;;56.00;2.37;;;;;;;;;;5057516;28;20615;-73
2023/11/10 01:43:56;;;;;;;55.87;2.30;;;;;;;;;;5058362;28;20469;-73
2023/11/10 01:46:35;;;;;;;55.80;2.43;;;;;;;;;;5058713;28;20461;-73
2023/11/10 01:49:03;;;;;;;55.90;2.33;;;;;;;;;;5057937;28;20498;-72
2023/11/10 01:51:31;;;;;;;56.00;2.27;;;;;;;;;;5058256;28;20473;-73
2023/11/10 01:53:58;;;;;;;55.87;2.37;;;;;;;;;;5059029;28;20453;-73
2023/11/10 01:56:26;;;;;;;55.90;2.10;;;;;;;;;;5059236;28;20447;-74
2023/11/10 01:58:53;;;;;;;55.67;2.27;;;;;;;;;;5057424;28;20823;-71
2023/11/10 02:01:22;;;;;;;55.70;2.20;;;;;;;;;;5058117;28;20474;-72
2023/11/10 02:03:50;;;;;;;55.60;1.90;;;;;;;;;;5055802;28;20542;-73
2023/11/10 02:06:17;;;;;;;55.70;2.10;;;;;;;;;;5057975;28;20830;-73
2023/11/10 02:08:45;;;;;;;55.40;2.50;;;;;;;;;;5056784;28;20496;-73
2023/11/10 02:11:12;;;;;;;55.67;2.20;;;;;;;;;;5054887;28;20481;-74
2023/11/10 02:13:39;;;;;;;55.27;2.10;;;;;;;;;;5062812;28;20485;-73
2023/11/10 02:16:07;;;;;;;55.73;2.53;;;;;;;;;;5062299;28;20977;-75
2023/11/10 02:18:35;;;;;;;56.00;2.20;;;;;;;;;;5060001;28;20476;-74
2023/11/10 02:21:02;;;;;;;55.80;2.50;;;;;;;;;;5060965;28;20462;-74
2023/11/10 02:23:29;;;;;;;55.37;2.30;;;;;;;;;;5059666;28;20490;-74
2023/11/10 02:25:58;;;;;;;55.57;2.27;;;;;;;;;;5056736;28;20443;-75
2023/11/10 02:28:25;;;;;;;55.70;2.40;;;;;;;;;;5059573;28;20481;-74
2023/11/10 02:30:52;;;;;;;55.80;2.30;;;;;;;;;;5060376;28;20985;-74
2023/11/10 02:33:19;;;;;;;55.77;2.20;;;;;;;;;;5060294;28;20514;-74
2023/11/10 02:35:46;;;;;;;55.90;2.00;;;;;;;;;;5060066;28;20477;-74
2023/11/10 02:38:14;;;;;;;55.60;2.20;;;;;;;;;;5059631;28;20485;-74
2023/11/10 02:40:41;;;;;;;55.70;2.00;;;;;;;;;;5060400;28;20517;-75
2023/11/10 02:43:09;;;;;;;55.70;2.03;;;;;;;;;;5060009;28;20987;-74
2023/11/10 02:45:36;;;;;;;55.73;2.40;;;;;;;;;;5063877;28;20492;-73
2023/11/10 02:48:04;;;;;;;55.60;2.13;;;;;;;;;;5063079;28;20465;-74
2023/11/10 02:50:32;;;;;;;55.93;2.30;;;;;;;;;;5063446;28;20559;-74
2023/11/10 02:52:59;;;;;;;55.47;1.97;;;;;;;;;;5064277;28;20465;-74
2023/11/10 02:55:26;;;;;;;55.67;2.27;;;;;;;;;;5063876;28;20500;-72
2023/11/10 02:57:53;;;;;;;56.10;2.60;;;;;;;;;;5062833;28;20517;-74
2023/11/10 03:00:22;;;;;;;56.13;2.47;;;;;;;;;;5063030;28;20921;-72
2023/11/10 03:02:49;;;;;;;55.63;2.20;;;;;;;;;;5061759;28;20513;-74
2023/11/10 03:05:17;;;;;;;56.53;2.30;;;;;;;;;;5062093;28;20458;-74
2023/11/10 03:07:44;;;;;;;55.53;2.07;;;;;;;;;;5060343;28;20457;-74
2023/11/10 03:10:11;;;;;;;56.07;2.20;;;;;;;;;;5060580;28;20556;-73
2023/11/10 03:12:39;;;;;;;55.90;2.40;;;;;;;;;;5060958;28;20448;-74
2023/11/10 03:15:07;;;;;;;55.87;2.43;;;;;;;;;;5060023;28;20550;-73
2023/11/10 03:17:35;;;;;;;55.87;2.13;;;;;;;;;;5059263;28;20454;-74
2023/11/10 03:20:02;;;;;;;55.77;2.00;;;;;;;;;;5059748;28;20443;-74
2023/11/10 03:22:30;;;;;;;55.93;2.30;;;;;;;;;;5063511;28;20454;-74
2023/11/10 03:24:57;;;;;;;55.90;2.20;;;;;;;;;;5064156;28;20450;-73
2023/11/10 03:27:24;;;;;;;55.67;2.10;;;;;;;;;;5062496;28;20544;-74
2023/11/10 03:29:51;;;;;;;55.67;2.20;;;;;;;;;;5051809;28;20590;-73
2023/11/10 03:32:19;;;;;;;56.00;2.50;;;;;;;;;;5062231;28;20490;-72
2023/11/10 03:34:47;;;;;;;56.77;2.33;;;;;;;;;;5062343;28;20785;-74
2023/11/10 03:37:14;;;;;;;55.77;2.17;;;;;;;;;;5063335;28;20965;-74
2023/11/10 03:39:41;;;;;;;55.80;2.17;;;;;;;;;;5067326;28;20485;-72
2023/11/10 03:42:09;;;;;;;55.80;2.30;;;;;;;;;;5065260;28;20525;-74
2023/11/10 03:44:36;;;;;;;55.67;2.40;;;;;;;;;;5064874;28;20470;-74
2023/11/10 03:47:03;;;;;;;55.70;2.40;;;;;;;;;;5061665;28;20445;-73
2023/11/10 03:49:31;;;;;;;55.47;2.27;;;;;;;;;;5060478;28;20490;-74
2023/11/10 03:51:59;;;;;;;55.77;2.20;;;;;;;;;;5063750;28;20474;-75
2023/11/10 03:54:27;;;;;;;55.90;2.17;;;;;;;;;;5062971;28;20530;-73
2023/11/10 03:56:55;;;;;;;55.63;2.33;;;;;;;;;;5061849;28;20512;-74
2023/11/10 03:59:22;;;;;;;55.53;2.10;;;;;;;;;;5063705;28;20446;-72
2023/11/10 04:01:49;;;;;;;55.33;2.00;;;;;;;;;;5062807;28;20509;-73
2023/11/10 04:04:17;;;;;;;55.80;2.20;;;;;;;;;;5063509;28;20447;-72
2023/11/10 04:06:45;;;;;;;55.87;2.10;;;;;;;;;;5065412;28;20505;-74
2023/11/10 04:09:14;;;;;;;55.50;2.00;;;;;;;;;;5059288;28;20521;-71
2023/11/10 04:11:41;;;;;;;55.70;2.13;;;;;;;;;;5065680;28;20470;-74
2023/11/10 04:14:08;;;;;;;55.97;2.30;;;;;;;;;;5066474;28;20454;-75
2023/11/10 04:16:35;;;;;;;55.23;1.90;;;;;;;;;;5067136;28;20442;-75
2023/11/10 04:19:03;;;;;;;55.90;2.00;;;;;;;;;;5068150;28;20482;-74
2023/11/10 04:21:30;;;;;;;55.47;1.90;;;;;;;;;;5068835;28;20470;-72
2023/11/10 04:23:57;;;;;;;55.37;2.10;;;;;;;;;;5066899;28;20442;-75
2023/11/10 04:26:26;;;;;;;55.83;2.10;;;;;;;;;;5064489;28;20482;-73
2023/11/10 04:28:53;;;;;;;55.70;2.20;;;;;;;;;;5052588;28;20457;-75
2023/11/10 04:31:20;;;;;;;55.87;2.20;;;;;;;;;;5065810;28;20481;-71
2023/11/10 04:33:47;;;;;;;55.80;2.10;;;;;;;;;;5066659;28;20454;-74
2023/11/10 04:36:14;;;;;;;60.03;2.77;;;;;;;;;;5066105;28;20446;-73
2023/11/10 04:38:43;;;;;;;55.53;2.13;;;;;;;;;;5063404;28;20501;-75
2023/11/10 04:41:10;;;;;;;55.90;2.10;;;;;;;;;;5065217;28;20466;-75
2023/11/10 04:43:39;;;;;;;55.47;2.20;;;;;;;;;;5066008;28;20842;-74
2023/11/10 04:46:06;;;;;;;54.70;2.10;;;;;;;;;;5067010;28;20466;-75
2023/11/10 04:48:33;;;;;;;56.00;2.10;;;;;;;;;;5066804;28;20488;-72
2023/11/10 04:51:03;;;;;;;55.63;2.00;;;;;;;;;;5064068;28;20535;-73
2023/11/10 04:53:30;;;;;;;55.50;2.07;;;;;;;;;;5068735;28;20479;-74
2023/11/10 04:55:57;;;;;;;55.30;1.93;;;;;;;;;;5063058;28;20486;-74
2023/11/10 04:58:24;;;;;;;55.67;2.23;;;;;;;;;;5063896;28;20494;-72
2023/11/10 05:00:53;;;;;;;55.87;2.10;;;;;;;;;;5064376;28;20503;-74
2023/11/10 05:03:20;;;;;;;55.90;1.90;;;;;;;;;;5063295;28;20553;-73
2023/11/10 05:05:48;;;;;;;55.07;1.90;;;;;;;;;;5065090;28;20542;-74
2023/11/10 05:08:18;;;;;;;55.67;1.77;;;;;;;;;;5068575;28;20462;-73
2023/11/10 05:10:45;;;;;;;54.87;2.03;;;;;;;;;;5066857;28;20501;-72
2023/11/10 05:13:13;;;;;;;55.50;2.17;;;;;;;;;;5065041;28;20518;-73
2023/11/10 05:15:42;;;;;;;55.43;1.90;;;;;;;;;;5066978;28;20453;-72
2023/11/10 05:18:12;;;;;;;55.53;1.87;;;;;;;;;;5070206;28;20496;-72
2023/11/10 05:20:39;;;;;;;55.60;2.10;;;;;;;;;;5067140;28;20962;-71
2023/11/10 05:23:07;;;;;;;55.70;1.93;;;;;;;;;;5065396;28;20477;-70
2023/11/10 05:25:35;;;;;;;55.70;1.90;;;;;;;;;;5066372;28;20454;-74
2023/11/10 05:28:02;;;;;;;55.67;2.00;;;;;;;;;;5067021;28;20478;-74
2023/11/10 05:30:33;;;;;;;55.80;2.20;;;;;;;;;;5068784;28;20496;-69
2023/11/10 05:33:00;;;;;;;55.37;1.80;;;;;;;;;;5068687;28;20541;-74
2023/11/10 05:35:28;;;;;;;55.87;1.70;;;;;;;;;;5067211;28;20450;-73
2023/11/10 05:37:56;;;;;;;55.87;1.90;;;;;;;;;;5067393;28;20457;-74
2023/11/10 05:40:24;;;;;;;55.73;1.93;;;;;;;;;;5065145;28;20505;-73
2023/11/10 05:42:52;;;;;;;55.80;2.00;;;;;;;;;;5067312;28;20482;-74
2023/11/10 05:45:20;;;;;;;56.00;2.30;;;;;;;;;;5074738;28;20479;-70
2023/11/10 05:47:47;;;;;;;56.00;2.40;;;;;;;;;;5072753;28;20478;-74
2023/11/10 05:50:16;;;;;;;55.87;2.47;;;;;;;;;;5066879;28;21006;-74
2023/11/10 05:52:45;;;;;;;55.90;2.10;;;;;;;;;;5066071;28;20544;-74
2023/11/10 05:55:12;;;;;;;55.77;2.07;;;;;;;;;;5067096;28;20453;-70
2023/11/10 05:57:40;;;;;;;55.67;2.10;;;;;;;;;;5071073;28;20446;-72
2023/11/10 06:00:08;;;;;;;55.80;2.30;;;;;;;;;;5067261;28;20454;-74
2023/11/10 06:02:35;;;;;;;55.67;2.20;;;;;;;;;;5064867;28;20522;-73
2023/11/10 06:05:04;;;;;;;55.47;2.30;;;;;;;;;;5069661;28;20458;-73
2023/11/10 06:07:32;;;;;;;55.57;2.10;;;;;;;;;;5067180;28;20894;-74
2023/11/10 06:10:00;;;;;;;55.17;2.00;;;;;;;;;;5065541;28;20512;-73
2023/11/10 06:12:27;;;;;;;55.90;2.20;;;;;;;;;;5070741;28;20471;-74
2023/11/10 06:14:54;;;;;;;56.00;2.10;;;;;;;;;;5071145;28;20473;-73
2023/11/10 06:17:22;;;;;;;55.67;2.20;;;;;;;;;;5068546;28;20439;-75
2023/11/10 06:19:50;;;;;;;55.70;2.37;;;;;;;;;;5071136;28;20465;-75
2023/11/10 06:22:17;;;;;;;55.80;2.10;;;;;;;;;;5069385;28;20454;-75
2023/11/10 06:24:44;;;;;;;55.77;2.27;;;;;;;;;;5067940;28;20968;-71
2023/11/10 06:27:13;;;;;;;55.90;2.23;;;;;;;;;;5068456;28;20473;-73
2023/11/10 06:29:41;;;;;;;55.73;2.20;;;;;;;;;;5069315;28;20481;-73
2023/11/10 06:32:10;;;;;;;55.70;2.03;;;;;;;;;;5067496;28;20469;-75
2023/11/10 06:34:38;;;;;;;56.03;2.10;;;;;;;;;;5067749;28;20845;-74
2023/11/10 06:37:05;;;;;;;55.60;2.30;;;;;;;;;;5070969;28;20541;-69
2023/11/10 06:39:33;;;;;;;55.90;2.10;;;;;;;;;;5073504;28;20469;-71
2023/11/10 06:42:01;;;;;;;55.80;2.80;;;;;;;;;;5074237;28;20452;-71
2023/11/10 06:44:29;;;;;;;55.10;2.10;;;;;;;;;;5072867;28;20462;-73
2023/11/10 06:46:57;;;;;;;55.70;2.20;;;;;;;;;;5075083;28;20447;-71
2023/11/10 06:49:24;;;;;;;55.60;2.20;;;;;;;;;;5073241;28;20446;-73
2023/11/10 06:51:51;;;;;;;55.80;2.13;;;;;;;;;;5070421;28;20481;-73
2023/11/10 06:54:20;;;;;;;55.57;2.30;;;;;;;;;;5070092;28;20514;-74
2023/11/10 06:56:47;;;;;;;55.63;2.27;;;;;;;;;;5070331;28;20514;-75
2023/11/10 06:59:14;;;;;;;55.60;2.23;;;;;;;;;;5068985;28;20450;-73
2023/11/10 07:01:43;;;;;;;55.60;2.10;;;;;;;;;;5071147;28;20480;-72
2023/11/10 07:04:10;;;;;;;55.60;2.17;;;;;;;;;;5073952;28;20946;-71
2023/11/10 07:06:38;;;;;;;55.90;2.20;;;;;;;;;;5071913;28;21064;-72
2023/11/10 07:09:07;;;;;;;55.67;2.37;;;;;;;;;;5069582;28;20526;-72
2023/11/10 07:11:34;;;;;;;55.57;2.13;;;;;;;;;;5070178;28;20549;-72
2023/11/10 07:14:02;;;;;;;55.57;2.20;;;;;;;;;;5069432;28;20538;-73
2023/11/10 07:16:30;;;;;;;55.60;2.30;;;;;;;;;;5071334;28;20441;-74
2023/11/10 07:18:58;;;;;;;55.83;2.10;;;;;;;;;;5070204;28;20449;-73
2023/11/10 07:21:29;;;;;;;55.70;2.03;;;;;;;;;;5069670;28;20473;-72
2023/11/10 07:23:56;;;;;;;55.70;1.80;;;;;;;;;;5070537;28;20489;-73
2023/11/10 07:26:23;;;;;;;55.80;2.07;;;;;;;;;;5069731;28;20523;-72
2023/11/10 07:28:51;;;;;;;55.60;2.10;;;;;;;;;;5068113;28;20444;-72
2023/11/10 07:31:18;;;;;;;55.33;1.97;;;;;;;;;;5068737;28;20509;-72
2023/11/10 07:33:45;;;;;;;55.90;1.90;;;;;;;;;;5071316;28;20450;-73
2023/11/10 07:36:14;;;;;;;55.70;2.20;;;;;;;;;;5072398;28;20518;-72
2023/11/10 07:38:41;;;;;;;55.80;2.00;;;;;;;;;;5070279;28;20463;-74
2023/11/10 07:41:08;;;;;;;55.80;2.20;;;;;;;;;;5069352;28;20486;-74
2023/11/10 07:43:36;;;;;;;55.80;2.00;;;;;;;;;;5064414;28;20481;-72
2023/11/10 07:46:04;;;;;;;55.80;2.00;;;;;;;;;;5068468;28;20482;-72
2023/11/10 07:48:32;;;;;;;55.73;2.20;;;;;;;;;;5067980;28;20470;-73
2023/11/10 07:50:59;;;;;;;55.47;1.90;;;;;;;;;;5071536;28;20502;-69
2023/11/10 07:53:28;;;;;;;55.20;2.20;;;;;;;;;;5070097;28;20460;-72
2023/11/10 07:55:56;;;;;;;55.90;2.10;;;;;;;;;;5065831;28;20557;-73
2023/11/10 07:58:23;;;;;;;55.77;2.20;;;;;;;;;;5066760;28;20970;-68
2023/11/10 08:01:00;;;;;;;55.50;1.93;;;;;;;;;;5070208;28;20501;-68
2023/11/10 08:03:27;;;;;;;55.57;1.83;;;;;;;;;;5071722;28;20451;-70
2023/11/10 08:05:57;;;;;;;55.87;2.00;;;;;;;;;;5070102;28;20997;-73
2023/11/10 08:08:24;;;;;;;55.57;2.10;;;;;;;;;;5052317;28;20465;-72
2023/11/10 08:10:53;;;;;;;55.27;1.80;;;;;;;;;;5050548;28;20573;-72
2023/11/10 08:13:20;;;;;;;55.70;2.10;;;;;;;;;;5051325;28;20792;-72
2023/11/10 08:15:47;;;;;;;55.63;2.20;;;;;;;;;;5051326;28;20450;-71
2023/11/10 08:18:15;;;;;;;55.80;2.00;;;;;;;;;;5051361;28;20486;-72
2023/11/10 08:20:42;;;;;;;56.70;3.63;;;;;;;;;;5051012;28;20464;-72
2023/11/10 08:23:10;;;;;;;55.13;2.10;;;;;;;;;;5050850;28;20454;-72
2023/11/10 08:25:37;;;;;;;55.47;1.90;;;;;;;;;;5050701;28;20457;-71
2023/11/10 08:28:08;;;;;;;55.67;2.00;;;;;;;;;;5050916;28;20549;-72
2023/11/10 08:30:35;;;;;;;55.80;1.97;;;;;;;;;;5051003;28;20937;-72
2023/11/10 08:33:03;;;;;;;55.70;1.90;;;;;;;;;;5050615;28;20455;-72
2023/11/10 08:35:30;;;;;;;55.70;2.00;;;;;;;;;;5050669;28;20545;-72
2023/11/10 08:37:57;;;;;;;55.77;1.90;;;;;;;;;;5050374;28;20468;-72
2023/11/10 08:40:24;;;;;;;55.27;1.83;;;;;;;;;;5052476;28;20466;-72
2023/11/10 08:42:51;;;;;;;55.27;1.70;;;;;;;;;;5054532;28;20969;-72
2023/11/10 08:45:24;;;;;;;55.80;1.83;;;;;;;;;;5055086;28;20485;-71
2023/11/10 08:47:51;;;;;;;55.47;2.00;;;;;;;;;;5054487;28;20470;-71
2023/11/10 08:50:18;;;;;;;55.57;2.20;;;;;;;;;;5054695;28;20466;-71
2023/11/10 08:52:47;;;;;;;55.80;2.17;;;;;;;;;;5054263;28;20456;-71
2023/11/10 08:55:17;;;;;;;55.47;1.83;;;;;;;;;;5054875;28;20469;-71
2023/11/10 08:57:46;;;;;;;55.30;2.00;;;;;;;;;;5054635;28;20491;-71
2023/11/10 09:00:17;;;;;;;55.60;1.80;;;;;;;;;;5054366;28;20745;-71
2023/11/10 09:02:46;;;;;;;55.33;1.63;;;;;;;;;;5054133;28;20459;-71
2023/11/10 09:05:14;;;;;;;55.80;1.80;;;;;;;;;;5054180;28;20456;-71
2023/11/10 09:07:41;;;;;;;55.40;1.83;;;;;;;;;;5053921;28;20470;-72
2023/11/10 09:10:10;;;;;;;54.90;1.70;;;;;;;;;;5054067;28;20481;-72
2023/11/10 09:12:38;;;;;;;55.03;1.90;;;;;;;;;;5053996;28;20483;-71
2023/11/10 09:15:07;;;;;;;54.87;1.83;;;;;;;;;;5054070;28;20512;-71
2023/11/10 09:17:34;;;;;;;55.70;1.80;;;;;;;;;;5053838;28;20852;-71
2023/11/10 09:20:03;;;;;;;55.53;2.00;;;;;;;;;;5053957;28;20454;-71
2023/11/10 09:22:31;;;;;;;55.47;1.70;;;;;;;;;;5053861;28;20457;-71
2023/11/10 09:24:58;;;;;;;55.53;1.90;;;;;;;;;;5053740;28;20463;-71
2023/11/10 09:27:25;;;;;;;55.77;2.10;;;;;;;;;;5053893;28;20541;-71
2023/11/10 09:29:52;;;;;;;55.47;1.97;;;;;;;;;;5053691;28;20618;-71
2023/11/10 09:32:19;;;;;;;55.30;1.90;;;;;;;;;;5053320;28;20486;-71
2023/11/10 09:34:46;;;;;;;55.80;1.77;;;;;;;;;;5053414;28;20950;-72
2023/11/10 09:37:15;;;;;;;54.70;1.50;;;;;;;;;;5053577;28;20455;-72
2023/11/10 09:39:43;;;;;;;56.87;2.77;;;;;;;;;;5053490;28;20898;-72
2023/11/10 09:42:10;;;;;;;55.53;1.90;;;;;;;;;;5053641;28;20558;-72
2023/11/10 09:44:40;;;;;;;55.67;1.80;;;;;;;;;;5053131;28;20991;-72
2023/11/10 09:47:08;;;;;;;55.87;1.80;;;;;;;;;;5044799;28;20482;-71
2023/11/10 09:49:36;;;;;;;55.47;1.80;;;;;;;;;;5053338;28;20978;-71
2023/11/10 09:52:04;;;;;;;55.77;1.77;;;;;;;;;;5052519;28;20515;-71
2023/11/10 09:54:35;;;;;;;55.97;1.93;;;;;;;;;;5053162;28;20480;-71
2023/11/10 09:57:03;;;;;;;55.90;1.90;;;;;;;;;;5052823;28;20487;-72
2023/11/10 09:59:31;;;;;;;55.90;2.00;;;;;;;;;;5052849;28;20463;-71
2023/11/10 10:02:00;;;;;;;55.47;1.73;;;;;;;;;;5052608;28;20475;-71
2023/11/10 10:04:27;;;;;;;55.70;2.03;;;;;;;;;;5053077;28;20451;-71
2023/11/10 10:06:57;;;;;;;55.43;1.90;;;;;;;;;;5053036;28;20960;-71
2023/11/10 10:09:26;;;;;;;55.70;1.77;;;;;;;;;;5052581;28;20456;-71
2023/11/10 10:11:55;;;;;;;55.47;1.90;;;;;;;;;;5050727;28;20530;-71
2023/11/10 10:14:22;;;;;;;55.23;2.07;;;;;;;;;;5053415;28;20455;-71
2023/11/10 10:16:53;;;;;;;55.33;2.00;;;;;;;;;;5052607;28;20448;-71
2023/11/10 10:19:22;;;;;;;55.70;1.90;;;;;;;;;;5052833;28;20455;-72
2023/11/10 10:21:50;;;;;;;55.53;1.90;;;;;;;;;;5052533;28;20470;-72
2023/11/10 10:24:17;;;;;;;55.37;1.70;;;;;;;;;;5052434;28;20462;-71
2023/11/10 10:26:44;;;;;;;56.00;1.90;;;;;;;;;;5052528;28;20447;-72
2023/11/10 10:29:12;;;;;;;55.47;1.90;;;;;;;;;;5052965;28;20450;-72
2023/11/10 10:31:40;;;;;;;55.87;1.90;;;;;;;;;;5052409;28;20494;-71
2023/11/10 10:34:07;;;;;;;55.67;1.73;;;;;;;;;;5052424;28;20553;-71
2023/11/10 10:36:35;;;;;;;55.53;1.80;;;;;;;;;;5052600;28;20451;-72
2023/11/10 10:39:04;;;;;;;55.90;1.80;;;;;;;;;;5052110;28;20455;-72
2023/11/10 10:41:34;;;;;;;55.90;1.90;;;;;;;;;;5052365;28;20471;-71
2023/11/10 10:44:03;;;;;;;55.43;1.77;;;;;;;;;;5052484;28;20447;-71
2023/11/10 10:46:34;;;;;;;55.57;1.90;;;;;;;;;;5052410;28;20455;-71
2023/11/10 10:49:03;;;;;;;55.90;1.70;;;;;;;;;;5052247;28;20451;-71
2023/11/10 10:51:31;;;;;;;55.80;1.90;;;;;;;;;;5052001;28;20540;-71
2023/11/10 10:54:03;;;;;;;55.17;1.77;;;;;;;;;;5052163;28;20454;-72
2023/11/10 10:56:31;;;;;;;55.90;2.00;;;;;;;;;;5052084;28;20541;-71
2023/11/10 10:58:59;;;;;;;55.03;1.80;;;;;;;;;;5052065;28;20546;-71
2023/11/10 11:01:27;;;;;;;55.33;1.77;;;;;;;;;;5051791;28;20863;-71
2023/11/10 11:04:03;;;;;;;55.63;1.77;;;;;;;;;;5050870;28;20456;-71
2023/11/10 11:06:41;;;;;;;55.50;1.97;;;;;;;;;;5052227;28;20455;-71
2023/11/10 11:09:21;;;;;;;55.53;1.80;;;;;;;;;;5051904;28;20458;-71
2023/11/10 11:12:09;;;;;;;55.80;1.77;;;;;;;;;;5051668;28;20556;-71
2023/11/10 11:14:39;;;;;;;55.80;2.10;;;;;;;;;;5052054;28;20443;-71
2023/11/10 11:17:27;;;;;;;56.00;1.80;;;;;;;;;;5051902;28;20451;-72
2023/11/10 11:19:57;;;;;;;57.67;2.97;;;;;;;;;;5051655;28;20456;-72
2023/11/10 11:22:24;;;;;;;57.80;2.13;;;;;;;;;;5051951;28;20921;-71
2023/11/10 11:24:51;;;;;;;55.90;1.90;;;;;;;;;;5051392;28;20482;-72
2023/11/10 11:27:22;;;;;;;55.77;2.03;;;;;;;;;;5051626;28;20450;-72
2023/11/10 11:29:55;;;;;;;55.97;2.10;;;;;;;;;;5052011;28;20447;-72
2023/11/10 11:32:25;;;;;;;56.00;1.87;;;;;;;;;;5051703;28;20482;-72
2023/11/10 11:34:52;;;;;;;56.00;1.90;;;;;;;;;;5051227;28;20612;-72
2023/11/10 11:37:22;;;;;;;55.77;1.80;;;;;;;;;;5051435;28;20530;-73
2023/11/10 11:39:53;;;;;;;55.43;1.83;;;;;;;;;;5051654;28;20470;-73
2023/11/10 11:42:20;;;;;;;55.97;2.20;;;;;;;;;;5051211;28;20812;-73
2023/11/10 11:44:56;;;;;;;55.70;2.10;;;;;;;;;;5051462;28;20526;-72
2023/11/10 11:47:23;;;;;;;55.67;1.90;;;;;;;;;;5051109;28;20450;-71
2023/11/10 11:49:52;;;;;;;55.77;1.90;;;;;;;;;;5050998;28;20456;-71
2023/11/10 11:52:21;;;;;;;55.73;2.40;;;;;;;;;;5051270;28;20513;-72
2023/11/10 11:54:48;;;;;;;56.40;2.13;;;;;;;;;;5051152;28;20965;-73
2023/11/10 11:57:16;;;;;;;55.70;1.90;;;;;;;;;;5051565;28;20442;-72
2023/11/10 11:59:43;;;;;;;55.77;1.80;;;;;;;;;;5051539;28;20504;-72
2023/11/10 12:02:13;;;;;;;55.87;2.10;;;;;;;;;;5050917;28;20502;-71
2023/11/10 12:04:42;;;;;;;55.77;1.70;;;;;;;;;;5051447;28;20455;-71
2023/11/10 12:07:09;;;;;;;55.60;1.70;;;;;;;;;;5050530;28;20463;-71
2023/11/10 12:09:38;;;;;;;55.53;1.80;;;;;;;;;;5050258;28;20484;-72
2023/11/10 12:12:05;;;;;;;55.93;1.70;;;;;;;;;;5051138;28;20470;-72
2023/11/10 12:14:33;;;;;;;56.07;2.40;;;;;;;;;;5050654;28;20452;-72
2023/11/10 12:17:02;;;;;;;55.47;1.80;;;;;;;;;;5051057;28;20455;-72
2023/11/10 12:19:29;;;;;;;55.43;1.80;;;;;;;;;;5051554;28;20448;-72
2023/11/10 12:21:56;;;;;;;56.17;1.80;;;;;;;;;;5050687;28;20499;-72
2023/11/10 12:24:25;;;;;;;55.50;1.60;;;;;;;;;;5051289;28;20816;-72
2023/11/10 12:26:54;;;;;;;55.03;1.63;;;;;;;;;;5050913;28;20458;-72
2023/11/10 12:29:26;;;;;;;55.37;1.53;;;;;;;;;;5050781;28;20449;-72
2023/11/10 12:31:54;;;;;;;55.53;1.60;;;;;;;;;;5050821;28;20479;-72
2023/11/10 12:34:21;;;;;;;55.50;1.60;;;;;;;;;;5050745;28;20452;-72
2023/11/10 12:36:48;;;;;;;55.70;1.60;;;;;;;;;;5050725;28;20448;-72
2023/11/10 12:39:18;;;;;;;55.40;1.63;;;;;;;;;;5050690;28;20453;-71
2023/11/10 12:41:45;;;;;;;55.80;1.70;;;;;;;;;;5050695;28;20948;-70
2023/11/10 12:44:14;;;;;;;55.07;1.50;;;;;;;;;;5050023;28;20485;-70
2023/11/10 12:46:52;;;;;;;55.27;1.63;;;;;;;;;;5050367;28;20455;-70
2023/11/10 12:49:19;;;;;;;55.30;1.50;;;;;;;;;;5042620;28;20444;-70
2023/11/10 12:51:48;;;;;;;55.10;1.47;;;;;;;;;;5050376;28;20471;-72
2023/11/10 12:54:15;;;;;;;54.77;1.57;;;;;;;;;;5050112;28;20846;-71
2023/11/10 12:56:43;;;;;;;56.00;1.80;;;;;;;;;;5050317;28;20445;-71
2023/11/10 12:59:10;;;;;;;55.63;1.70;;;;;;;;;;5049761;28;20448;-71
2023/11/10 13:01:39;;;;;;;56.50;2.03;;;;;;;;;;5050085;28;20510;-71
2023/11/10 13:04:06;;;;;;;56.00;2.00;;;;;;;;;;5050205;28;20456;-71
2023/11/10 13:06:33;;;;;;;55.87;1.80;;;;;;;;;;5048410;28;20444;-71
2023/11/10 13:09:01;;;;;;;55.97;1.87;;;;;;;;;;5049926;28;20451;-71
2023/11/10 13:11:28;;;;;;;56.07;2.03;;;;;;;;;;5050224;28;20471;-71
2023/11/10 13:13:55;;;;;;;56.13;1.97;;;;;;;;;;5050515;28;20457;-71
2023/11/10 13:16:22;;;;;;;56.40;2.40;;;;;;;;;;5050085;28;20809;-71
2023/11/10 13:18:52;;;;;;;56.03;2.20;;;;;;;;;;5050136;28;20446;-70
2023/11/10 13:21:20;;;;;;;56.20;1.80;;;;;;;;;;5050103;28;20477;-71
2023/11/10 13:23:48;;;;;;;56.10;1.90;;;;;;;;;;5050224;28;20602;-71
2023/11/10 13:26:17;;;;;;;56.20;2.10;;;;;;;;;;5050181;28;20486;-71
2023/11/10 13:28:44;;;;;;;55.80;1.90;;;;;;;;;;5053622;28;20823;-71
2023/11/10 13:31:12;;;;;;;56.20;1.90;;;;;;;;;;5053637;28;20464;-71
2023/11/10 13:33:42;;;;;;;56.13;2.00;;;;;;;;;;5053704;28;20497;-71
2023/11/10 13:36:11;;;;;;;55.87;1.80;;;;;;;;;;5053734;28;20460;-72
2023/11/10 13:38:39;;;;;;;55.97;1.90;;;;;;;;;;5054024;28;20538;-72
2023/11/10 13:41:06;;;;;;;55.83;1.80;;;;;;;;;;5053511;28;20467;-72
2023/11/10 13:43:33;;;;;;;55.70;1.80;;;;;;;;;;5053498;28;20491;-71
2023/11/10 13:46:01;;;;;;;55.57;1.97;;;;;;;;;;5053569;28;20486;-72
2023/11/10 13:48:29;;;;;;;55.73;2.20;;;;;;;;;;5053103;28;21051;-71
2023/11/10 13:50:57;;;;;;;56.07;2.00;;;;;;;;;;5053685;28;20474;-71
2023/11/10 13:53:25;;;;;;;56.20;2.10;;;;;;;;;;5053247;28;20458;-71
2023/11/10 13:55:53;;;;;;;56.17;2.00;;;;;;;;;;5053228;28;20452;-71
2023/11/10 13:58:20;;;;;;;56.23;2.20;;;;;;;;;;5053096;28;20509;-71
2023/11/10 14:00:49;;;;;;;56.47;2.20;;;;;;;;;;5053413;28;20539;-71
2023/11/10 14:03:16;;;;;;;56.30;2.30;;;;;;;;;;5053136;28;20483;-71
2023/11/10 14:05:43;;;;;;;56.30;2.20;;;;;;;;;;5053163;28;20455;-71
2023/11/10 14:08:11;;;;;;;56.43;2.03;;;;;;;;;;5052738;28;20928;-71
2023/11/10 14:10:40;;;;;;;56.07;2.07;;;;;;;;;;5052699;28;20509;-72
2023/11/10 14:13:08;;;;;;;56.07;2.13;;;;;;;;;;5052661;28;20459;-72
2023/11/10 14:15:35;;;;;;;56.37;2.30;;;;;;;;;;5052854;28;20455;-72
2023/11/10 14:18:02;;;;;;;55.80;2.07;;;;;;;;;;5052599;28;20455;-71
2023/11/10 14:20:29;;;;;;;56.00;2.00;;;;;;;;;;5052839;28;20485;-72
2023/11/10 14:22:56;;;;;;;55.90;2.20;;;;;;;;;;5067477;28;20949;-71
2023/11/10 14:25:23;;;;;;;55.87;1.97;;;;;;;;;;5068521;28;20456;-71
2023/11/10 14:27:52;;;;;;;55.93;2.03;;;;;;;;;;5069551;28;20518;-72
2023/11/10 14:30:19;;;;;;;55.87;1.90;;;;;;;;;;5070474;28;20476;-72
2023/11/10 14:32:46;;;;;;;55.63;1.73;;;;;;;;;;5070647;28;20519;-72
2023/11/10 14:35:14;;;;;;;56.00;1.90;;;;;;;;;;5072893;28;20449;-71
2023/11/10 14:37:41;;;;;;;55.50;1.93;;;;;;;;;;5072781;28;20458;-71